Clayville, Rhode Island
Current Conditions -  °F | °C
As of 10:51 AM on Sunday 21 Dec 2014 (Local Time) from KPVD Reporting Station
Light Snow Light Snow  
Wind Chill: 24°   Ceiling: 700
Heat Index: 32°   Visibility: 1mi
Dew Point: 30°   Wind: 10mph
Humidity: 92%   Direction: 20°NNE
Pressure: 30.31"   Gusts: NA
Location:  41.78°N, 71.68°W
Report Text: KPVD 211551Z 02009KT 1SM R05/P6000FT -SN BR OVC007 00/M01 A3031 RMK AO2 TWR VIS 1 1/2 SNB04 SLP263 P0001 T00001011
Loading
Personal Weather Stations






























Interactive Weather Map New forecast layout! Learn more

10-Day Weather Forecast

Advertisements
Track Severe Weather on mobile